Time;durP1;ratioP1;P1;durP2;ratioP2;P2;SDS_P1;SDS_P2;PMS_P1;PMS_P2;Temp;Humidity;BMP_temperature;BMP_pressure;BME280_temperature;BME280_humidity;BME280_pressure;Samples;Min_cycle;Max_cycle;Signal;HPM_P1;HPM_P2
2023/01/03 00:01:46;;;;;;;;;7.25;5.00;;;;;;;;5001526;28;45331;-74
2023/01/03 00:04:11;;;;;;;;;6.50;4.25;;;;;;;;5010271;28;45311;-74
2023/01/03 00:06:38;;;;;;;;;8.00;6.25;;;;;;;;5003562;28;45290;-75
2023/01/03 00:09:05;;;;;;;;;11.00;8.00;;;;;;;;5013404;28;45429;-75
2023/01/03 00:14:18;;;;;;;;;12.75;9.50;;;;;;;;4988069;28;45546;-75
2023/01/03 00:16:43;;;;;;;;;7.75;4.75;;;;;;;;5002907;28;47459;-75
2023/01/03 00:19:09;;;;;;;;;9.00;6.50;;;;;;;;5011339;28;45941;-75
2023/01/03 00:21:35;;;;;;;;;8.25;6.75;;;;;;;;5002971;28;45284;-75
2023/01/03 00:24:00;;;;;;;;;10.75;9.25;;;;;;;;5014151;28;45281;-75
2023/01/03 00:26:26;;;;;;;;;8.75;6.25;;;;;;;;5002536;28;45519;-75
2023/01/03 00:28:51;;;;;;;;;11.50;9.00;;;;;;;;5015277;28;45411;-73
2023/01/03 00:31:16;;;;;;;;;12.50;11.25;;;;;;;;5006746;28;45364;-74
2023/01/03 00:33:42;;;;;;;;;12.00;10.25;;;;;;;;5017200;28;45351;-73
2023/01/03 00:36:08;;;;;;;;;9.00;9.00;;;;;;;;4996753;28;45423;-74
2023/01/03 00:38:34;;;;;;;;;11.25;9.75;;;;;;;;5019328;28;45219;-74
2023/01/03 00:41:06;;;;;;;;;9.00;7.50;;;;;;;;5000688;28;45396;-74
2023/01/03 00:43:32;;;;;;;;;11.00;7.00;;;;;;;;5009877;28;45375;-74
2023/01/03 00:45:57;;;;;;;;;8.00;8.00;;;;;;;;5002446;28;45264;-74
2023/01/03 00:48:23;;;;;;;;;8.00;7.75;;;;;;;;5019292;28;45378;-73
2023/01/03 00:50:48;;;;;;;;;8.75;7.50;;;;;;;;5004995;28;45266;-74
2023/01/03 00:53:13;;;;;;;;;9.00;8.75;;;;;;;;5019075;28;45714;-73
2023/01/03 00:55:38;;;;;;;;;8.25;6.25;;;;;;;;4995179;28;46153;-75
2023/01/03 00:58:04;;;;;;;;;9.50;8.00;;;;;;;;5007891;28;45232;-76
2023/01/03 01:00:29;;;;;;;;;9.00;7.00;;;;;;;;4998991;28;45422;-75
2023/01/03 01:02:54;;;;;;;;;7.25;7.00;;;;;;;;5007238;28;46791;-73
2023/01/03 01:05:20;;;;;;;;;7.25;5.25;;;;;;;;5000761;28;45336;-75
2023/01/03 01:07:45;;;;;;;;;7.00;7.00;;;;;;;;5009990;28;45216;-75
2023/01/03 01:10:12;;;;;;;;;9.75;5.00;;;;;;;;4998966;28;45473;-75
2023/01/03 01:12:37;;;;;;;;;7.00;7.00;;;;;;;;4992257;28;45844;-75
2023/01/03 01:15:02;;;;;;;;;6.00;4.25;;;;;;;;4996137;28;45315;-75
2023/01/03 01:17:28;;;;;;;;;7.25;7.25;;;;;;;;5001194;28;45457;-73
2023/01/03 01:19:53;;;;;;;;;11.50;7.75;;;;;;;;5001589;28;45402;-75
2023/01/03 01:22:18;;;;;;;;;6.50;6.50;;;;;;;;5003444;28;45537;-75
2023/01/03 01:24:43;;;;;;;;;10.25;6.75;;;;;;;;5006926;28;45513;-75
2023/01/03 01:27:09;;;;;;;;;4.50;4.00;;;;;;;;5013039;28;45326;-73
2023/01/03 01:29:35;;;;;;;;;7.25;7.25;;;;;;;;5006378;28;45436;-75
2023/01/03 01:32:00;;;;;;;;;5.00;4.00;;;;;;;;5003439;28;45439;-74
2023/01/03 01:34:26;;;;;;;;;7.50;6.00;;;;;;;;5007907;28;45354;-73
2023/01/03 01:36:51;;;;;;;;;5.00;4.25;;;;;;;;5005786;28;45467;-74
2023/01/03 01:39:21;;;;;;;;;5.00;4.00;;;;;;;;5009664;28;45315;-73
2023/01/03 01:44:40;;;;;;;;;9.75;4.00;;;;;;;;5011161;28;45351;-74
2023/01/03 01:47:24;;;;;;;;;3.00;3.00;;;;;;;;5017446;28;45228;-74
2023/01/03 01:49:53;;;;;;;;;5.75;4.25;;;;;;;;5005981;28;45347;-75
2023/01/03 01:52:19;;;;;;;;;4.75;4.75;;;;;;;;4994855;28;45379;-74
2023/01/03 01:54:46;;;;;;;;;4.75;4.75;;;;;;;;5006617;28;46397;-74
2023/01/03 01:57:14;;;;;;;;;8.75;4.00;;;;;;;;5002220;28;45245;-74
2023/01/03 01:59:39;;;;;;;;;9.00;4.00;;;;;;;;4999214;28;45253;-74
2023/01/03 02:02:05;;;;;;;;;8.25;5.50;;;;;;;;4997703;28;45457;-74
2023/01/03 02:04:33;;;;;;;;;9.75;5.50;;;;;;;;4995724;28;45368;-74
2023/01/03 02:06:58;;;;;;;;;9.25;4.50;;;;;;;;4987297;28;45344;-75
2023/01/03 02:09:23;;;;;;;;;5.00;5.00;;;;;;;;4995821;28;45402;-74
2023/01/03 02:13:04;;;;;;;;;7.75;5.00;;;;;;;;4998755;28;46779;-74
2023/01/03 02:14:53;;;;;;;;;4.75;4.00;;;;;;;;4993917;28;45201;-74
2023/01/03 02:17:37;;;;;;;;;7.25;5.00;;;;;;;;4999187;28;45386;-74
2023/01/03 02:20:21;;;;;;;;;6.00;5.00;;;;;;;;4995605;28;45346;-74
2023/01/03 02:23:02;;;;;;;;;6.50;4.00;;;;;;;;5002837;28;46647;-73
2023/01/03 02:25:27;;;;;;;;;4.00;4.00;;;;;;;;5000760;28;46676;-74
2023/01/03 02:27:52;;;;;;;;;7.75;6.00;;;;;;;;4998194;28;44844;-74
2023/01/03 02:30:30;;;;;;;;;4.75;4.00;;;;;;;;5000575;28;45386;-75
2023/01/03 02:33:01;;;;;;;;;5.00;5.00;;;;;;;;5004469;28;45398;-74
2023/01/03 02:35:31;;;;;;;;;7.75;5.00;;;;;;;;4997820;28;45245;-76
2023/01/03 02:38:03;;;;;;;;;4.00;4.00;;;;;;;;5006769;28;45502;-75
2023/01/03 02:40:31;;;;;;;;;6.50;5.25;;;;;;;;5001308;28;45434;-75
2023/01/03 02:43:04;;;;;;;;;6.50;5.00;;;;;;;;5006468;28;45296;-75
2023/01/03 02:45:48;;;;;;;;;7.25;5.00;;;;;;;;5002539;28;45413;-76
2023/01/03 02:48:19;;;;;;;;;9.25;5.25;;;;;;;;5030472;28;46028;-76
2023/01/03 02:50:48;;;;;;;;;7.00;5.00;;;;;;;;5004470;28;45358;-75
2023/01/03 02:53:18;;;;;;;;;7.25;5.75;;;;;;;;4995205;28;45466;-76
2023/01/03 02:55:44;;;;;;;;;8.25;5.00;;;;;;;;5000069;28;47191;-73
2023/01/03 02:58:16;;;;;;;;;6.00;6.00;;;;;;;;5016589;28;45378;-76
2023/01/03 03:00:44;;;;;;;;;4.50;4.50;;;;;;;;5007545;28;45353;-76
2023/01/03 03:03:11;;;;;;;;;8.00;6.50;;;;;;;;4994074;28;45453;-75
2023/01/03 03:05:44;;;;;;;;;6.50;5.00;;;;;;;;4992381;28;45269;-75
2023/01/03 03:08:09;;;;;;;;;5.00;4.75;;;;;;;;5003335;28;45361;-75
2023/01/03 03:13:35;;;;;;;;;9.00;5.25;;;;;;;;4992953;28;45359;-76
2023/01/03 03:16:04;;;;;;;;;7.25;4.00;;;;;;;;4995192;28;47195;-76
2023/01/03 03:18:41;;;;;;;;;5.25;4.00;;;;;;;;4997536;28;45536;-76
2023/01/03 03:26:39;;;;;;;;;8.50;6.50;;;;;;;;4997549;28;45311;-76
2023/01/03 03:29:07;;;;;;;;;9.00;7.00;;;;;;;;5003649;28;45382;-76
2023/01/03 03:31:35;;;;;;;;;7.00;4.25;;;;;;;;4999375;28;45426;-74
2023/01/03 03:34:19;;;;;;;;;6.25;5.00;;;;;;;;5003229;28;45310;-74
2023/01/03 03:36:49;;;;;;;;;8.25;7.00;;;;;;;;5007325;28;45313;-74
2023/01/03 03:45:00;;;;;;;;;3.25;3.25;;;;;;;;5010215;28;45302;-75
2023/01/03 03:47:30;;;;;;;;;4.75;3.00;;;;;;;;5008595;28;45245;-74
2023/01/03 03:50:00;;;;;;;;;5.00;4.00;;;;;;;;5006319;28;45233;-74
2023/01/03 03:52:27;;;;;;;;;6.75;5.00;;;;;;;;5004188;28;45379;-74
2023/01/03 03:54:56;;;;;;;;;10.25;7.00;;;;;;;;4998241;28;45301;-75
2023/01/03 03:57:32;;;;;;;;;8.50;6.00;;;;;;;;5001249;28;45262;-75
2023/01/03 04:00:01;;;;;;;;;12.25;10.00;;;;;;;;4998924;28;45406;-75
2023/01/03 04:02:28;;;;;;;;;9.75;7.75;;;;;;;;5009112;28;45256;-75
2023/01/03 04:04:56;;;;;;;;;8.50;8.50;;;;;;;;5000490;28;46098;-75
2023/01/03 04:07:21;;;;;;;;;8.00;5.00;;;;;;;;5008047;28;45208;-74
2023/01/03 04:09:46;;;;;;;;;9.50;8.50;;;;;;;;5001899;28;45214;-75
2023/01/03 04:12:12;;;;;;;;;7.75;7.75;;;;;;;;5007951;28;45483;-75
2023/01/03 04:14:37;;;;;;;;;8.75;8.75;;;;;;;;4997340;28;45294;-75
2023/01/03 04:17:02;;;;;;;;;9.00;7.00;;;;;;;;4998734;28;45298;-75
2023/01/03 04:19:27;;;;;;;;;10.50;8.00;;;;;;;;4998827;28;45400;-75
2023/01/03 04:21:52;;;;;;;;;7.75;7.75;;;;;;;;5005022;28;45402;-75
2023/01/03 04:24:19;;;;;;;;;8.75;6.25;;;;;;;;5003461;28;45317;-75
2023/01/03 04:26:44;;;;;;;;;9.25;8.00;;;;;;;;5002437;28;47085;-75
2023/01/03 04:29:09;;;;;;;;;11.25;8.00;;;;;;;;5005961;28;45462;-75
2023/01/03 04:31:34;;;;;;;;;10.50;7.50;;;;;;;;4994806;28;45309;-74
2023/01/03 04:34:00;;;;;;;;;7.50;6.50;;;;;;;;5006452;28;45434;-74
2023/01/03 04:36:25;;;;;;;;;7.75;5.75;;;;;;;;4997757;28;46172;-73
2023/01/03 04:38:50;;;;;;;;;10.00;7.00;;;;;;;;5008029;28;45218;-74
2023/01/03 04:41:15;;;;;;;;;6.00;6.00;;;;;;;;4995270;28;45257;-74
2023/01/03 04:46:24;;;;;;;;;8.25;7.00;;;;;;;;5006085;28;45310;-75
2023/01/03 04:48:50;;;;;;;;;9.25;9.00;;;;;;;;5005658;28;45351;-75
2023/01/03 04:51:15;;;;;;;;;8.75;7.75;;;;;;;;5000864;28;45340;-75
2023/01/03 04:53:40;;;;;;;;;10.25;9.00;;;;;;;;5005638;28;45468;-76
2023/01/03 04:56:06;;;;;;;;;9.00;8.00;;;;;;;;4998221;28;46314;-74
2023/01/03 04:58:31;;;;;;;;;10.50;7.75;;;;;;;;5007239;28;45347;-75
2023/01/03 05:01:03;;;;;;;;;10.25;7.75;;;;;;;;4994649;28;45234;-76
2023/01/03 05:03:29;;;;;;;;;5.00;4.00;;;;;;;;5007053;28;45688;-74
2023/01/03 05:05:59;;;;;;;;;10.50;8.00;;;;;;;;4997147;28;45513;-74
2023/01/03 05:08:24;;;;;;;;;8.50;8.25;;;;;;;;5006230;28;45249;-74
2023/01/03 05:10:51;;;;;;;;;8.75;7.50;;;;;;;;4998972;28;45406;-74
2023/01/03 05:13:16;;;;;;;;;10.50;7.00;;;;;;;;5000259;28;45408;-74
2023/01/03 05:15:41;;;;;;;;;9.50;7.00;;;;;;;;4998009;28;45159;-74
2023/01/03 05:18:06;;;;;;;;;7.75;7.00;;;;;;;;4998864;28;45237;-75
2023/01/03 05:26:04;;;;;;;;;8.50;8.50;;;;;;;;4995472;28;45231;-75
2023/01/03 05:28:30;;;;;;;;;6.75;6.75;;;;;;;;5006141;28;45319;-75
2023/01/03 05:30:59;;;;;;;;;9.00;7.00;;;;;;;;4998376;28;45482;-75
2023/01/03 05:33:24;;;;;;;;;6.50;6.50;;;;;;;;5006304;28;45252;-74
2023/01/03 05:35:49;;;;;;;;;8.00;8.00;;;;;;;;4997235;28;45459;-74
2023/01/03 05:38:15;;;;;;;;;5.25;5.00;;;;;;;;5006071;28;45331;-74
2023/01/03 05:40:40;;;;;;;;;5.00;4.25;;;;;;;;4995423;28;45453;-74
2023/01/03 05:43:06;;;;;;;;;9.00;7.75;;;;;;;;5003679;28;45760;-74
2023/01/03 05:45:34;;;;;;;;;7.25;5.00;;;;;;;;5001311;28;45377;-75
2023/01/03 05:48:00;;;;;;;;;6.75;6.25;;;;;;;;5001682;28;45335;-74
2023/01/03 05:50:25;;;;;;;;;7.75;6.75;;;;;;;;5000952;28;45403;-74
2023/01/03 05:52:51;;;;;;;;;10.50;8.00;;;;;;;;5003815;28;45290;-76
2023/01/03 05:55:16;;;;;;;;;7.50;7.50;;;;;;;;4990348;28;46718;-76
2023/01/03 05:57:41;;;;;;;;;11.75;8.00;;;;;;;;4997927;28;45342;-75
2023/01/03 06:00:09;;;;;;;;;4.00;4.00;;;;;;;;5003503;28;45439;-76
2023/01/03 06:02:36;;;;;;;;;7.50;4.25;;;;;;;;4997157;28;46537;-74
2023/01/03 06:05:01;;;;;;;;;7.00;7.00;;;;;;;;4992208;28;47360;-75
2023/01/03 06:07:28;;;;;;;;;6.75;4.75;;;;;;;;4999797;28;45277;-76
2023/01/03 06:09:53;;;;;;;;;7.50;5.00;;;;;;;;4995119;28;45446;-72
2023/01/03 06:12:18;;;;;;;;;10.25;7.50;;;;;;;;5000058;28;45250;-74
2023/01/03 06:14:44;;;;;;;;;8.25;7.00;;;;;;;;4995680;28;45480;-75
2023/01/03 06:19:53;;;;;;;;;9.00;5.00;;;;;;;;4991933;28;45293;-74
2023/01/03 06:22:18;;;;;;;;;3.75;3.50;;;;;;;;5003613;28;45711;-74
2023/01/03 06:24:43;;;;;;;;;8.50;7.00;;;;;;;;4995957;28;46930;-73
2023/01/03 06:27:08;;;;;;;;;8.25;6.00;;;;;;;;5008920;28;45359;-74
2023/01/03 06:29:34;;;;;;;;;5.75;4.25;;;;;;;;4999523;28;45267;-74
2023/01/03 06:31:59;;;;;;;;;10.50;7.50;;;;;;;;5000962;28;45284;-74
2023/01/03 06:34:24;;;;;;;;;5.25;3.00;;;;;;;;5000982;28;45547;-74
2023/01/03 06:36:49;;;;;;;;;7.25;7.00;;;;;;;;5003327;28;45316;-75
2023/01/03 06:39:14;;;;;;;;;5.25;5.25;;;;;;;;5011197;28;45515;-75
2023/01/03 06:41:40;;;;;;;;;6.75;6.25;;;;;;;;4999781;28;45723;-74
2023/01/03 06:44:05;;;;;;;;;8.00;8.00;;;;;;;;5005934;28;46121;-74
2023/01/03 06:54:43;;;;;;;;;8.50;8.00;;;;;;;;5012561;28;45253;-74
2023/01/03 06:57:08;;;;;;;;;11.00;6.75;;;;;;;;4995048;28;45500;-74
2023/01/03 06:59:34;;;;;;;;;10.00;4.75;;;;;;;;5006914;28;45335;-75
2023/01/03 07:01:59;;;;;;;;;8.50;5.50;;;;;;;;4996263;28;46861;-74
2023/01/03 07:04:24;;;;;;;;;7.25;5.00;;;;;;;;5008631;28;46478;-74
2023/01/03 07:06:50;;;;;;;;;7.00;6.50;;;;;;;;5000552;28;45355;-74
2023/01/03 07:09:16;;;;;;;;;9.00;7.25;;;;;;;;5009365;28;45533;-75
2023/01/03 07:11:41;;;;;;;;;8.50;8.25;;;;;;;;4987740;28;45344;-74
2023/01/03 07:14:07;;;;;;;;;13.75;9.75;;;;;;;;4996467;28;45411;-74
2023/01/03 07:16:37;;;;;;;;;12.25;7.75;;;;;;;;4999356;28;45372;-74
2023/01/03 07:19:03;;;;;;;;;12.25;10.25;;;;;;;;5007634;28;45438;-74
2023/01/03 07:21:29;;;;;;;;;15.00;10.00;;;;;;;;4988585;28;45298;-74
2023/01/03 07:23:55;;;;;;;;;10.75;8.50;;;;;;;;5008400;28;47033;-74
2023/01/03 07:26:23;;;;;;;;;11.25;9.00;;;;;;;;4991564;28;45331;-74
2023/01/03 07:28:48;;;;;;;;;8.50;8.50;;;;;;;;5003525;28;45264;-75
2023/01/03 07:31:13;;;;;;;;;9.00;7.25;;;;;;;;4994245;28;45343;-74
2023/01/03 07:33:39;;;;;;;;;7.50;7.00;;;;;;;;5012610;28;46722;-75
2023/01/03 07:36:06;;;;;;;;;9.75;6.50;;;;;;;;4995346;28;45363;-74
2023/01/03 07:38:31;;;;;;;;;7.75;7.75;;;;;;;;5007908;28;45326;-74
2023/01/03 07:41:02;;;;;;;;;9.00;7.00;;;;;;;;4999233;28;45441;-75
2023/01/03 07:43:36;;;;;;;;;9.00;7.50;;;;;;;;5009815;28;46113;-74
2023/01/03 07:46:04;;;;;;;;;8.50;7.00;;;;;;;;4993321;28;45462;-74
2023/01/03 07:48:29;;;;;;;;;8.25;8.25;;;;;;;;5007048;28;45193;-73
2023/01/03 07:50:58;;;;;;;;;10.25;8.25;;;;;;;;4995610;28;47156;-74
2023/01/03 07:53:23;;;;;;;;;9.50;8.25;;;;;;;;5007085;28;46249;-74
2023/01/03 07:55:48;;;;;;;;;8.00;8.00;;;;;;;;4999614;28;45418;-74
2023/01/03 07:58:13;;;;;;;;;19.00;12.00;;;;;;;;5007068;28;45223;-74
2023/01/03 08:00:39;;;;;;;;;8.75;8.00;;;;;;;;4993812;28;45826;-74
2023/01/03 08:03:04;;;;;;;;;11.75;8.25;;;;;;;;4991293;28;45271;-73
2023/01/03 08:05:30;;;;;;;;;10.00;8.25;;;;;;;;4993474;28;45264;-74
2023/01/03 08:07:55;;;;;;;;;9.25;9.25;;;;;;;;4994781;28;45233;-73
2023/01/03 08:13:16;;;;;;;;;9.00;8.00;;;;;;;;4991571;28;45335;-74
2023/01/03 08:15:45;;;;;;;;;7.75;7.50;;;;;;;;4998013;28;45348;-74
2023/01/03 08:18:11;;;;;;;;;8.50;8.00;;;;;;;;4992609;28;45231;-74
2023/01/03 08:20:37;;;;;;;;;9.00;7.75;;;;;;;;4997021;28;45282;-74
2023/01/03 08:23:02;;;;;;;;;8.75;8.50;;;;;;;;4996701;28;45295;-74
2023/01/03 08:25:27;;;;;;;;;6.50;5.50;;;;;;;;4995725;28;45388;-74
2023/01/03 08:27:56;;;;;;;;;8.75;8.50;;;;;;;;4996454;28;45470;-75
2023/01/03 08:30:21;;;;;;;;;8.75;5.50;;;;;;;;4992285;28;45379;-75
2023/01/03 08:32:46;;;;;;;;;8.25;8.00;;;;;;;;4996434;28;46716;-75
2023/01/03 08:35:11;;;;;;;;;8.75;7.25;;;;;;;;4995517;28;45409;-74
2023/01/03 08:37:36;;;;;;;;;9.50;7.25;;;;;;;;4996687;28;45472;-75
2023/01/03 08:40:03;;;;;;;;;14.00;8.75;;;;;;;;5000723;28;46660;-74
2023/01/03 08:42:29;;;;;;;;;10.00;6.75;;;;;;;;4995831;28;47416;-74
2023/01/03 08:44:58;;;;;;;;;10.75;7.75;;;;;;;;5003575;28;45177;-74
2023/01/03 08:47:23;;;;;;;;;11.25;8.25;;;;;;;;4998371;28;45459;-76
2023/01/03 08:49:48;;;;;;;;;13.50;10.75;;;;;;;;5001847;28;45403;-74
2023/01/03 08:52:14;;;;;;;;;13.75;10.00;;;;;;;;4992206;28;46741;-74
2023/01/03 08:54:39;;;;;;;;;6.50;4.25;;;;;;;;5000752;28;45300;-74
2023/01/03 08:57:04;;;;;;;;;10.00;9.00;;;;;;;;5001529;28;45462;-74
2023/01/03 08:59:30;;;;;;;;;9.50;9.00;;;;;;;;5003763;28;45552;-75
2023/01/03 09:01:58;;;;;;;;;10.75;9.00;;;;;;;;4986007;28;46063;-76
2023/01/03 09:04:23;;;;;;;;;10.75;8.00;;;;;;;;4994955;28;45336;-74
2023/01/03 09:06:48;;;;;;;;;11.50;6.50;;;;;;;;4992969;28;45462;-73
2023/01/03 09:09:14;;;;;;;;;8.00;7.00;;;;;;;;5000963;28;45261;-75
2023/01/03 09:11:39;;;;;;;;;7.25;7.25;;;;;;;;4992279;28;45258;-74
2023/01/03 09:14:04;;;;;;;;;10.00;7.00;;;;;;;;5000944;28;45311;-74
2023/01/03 09:16:29;;;;;;;;;7.00;7.00;;;;;;;;4994563;28;45241;-74
2023/01/03 09:18:54;;;;;;;;;9.25;7.25;;;;;;;;5002872;28;47450;-73
2023/01/03 09:21:20;;;;;;;;;8.25;8.00;;;;;;;;4998122;28;46284;-74
2023/01/03 09:23:45;;;;;;;;;6.50;6.50;;;;;;;;5013302;28;45204;-74
2023/01/03 09:26:10;;;;;;;;;8.25;7.75;;;;;;;;4996358;28;45558;-75
2023/01/03 09:28:35;;;;;;;;;13.00;10.75;;;;;;;;5017766;28;45588;-74
2023/01/03 09:31:01;;;;;;;;;6.50;6.50;;;;;;;;4999823;28;45313;-74
2023/01/03 09:33:26;;;;;;;;;8.50;8.50;;;;;;;;5015035;28;45414;-74
2023/01/03 09:35:53;;;;;;;;;5.50;3.50;;;;;;;;5002064;28;45157;-75
2023/01/03 09:38:18;;;;;;;;;11.00;9.00;;;;;;;;5015336;28;46031;-73
2023/01/03 09:40:45;;;;;;;;;10.75;9.25;;;;;;;;5005006;28;45180;-74
2023/01/03 09:43:15;;;;;;;;;10.50;8.75;;;;;;;;5012805;28;45284;-75
2023/01/03 09:45:43;;;;;;;;;13.00;9.50;;;;;;;;4991614;28;45559;-74
2023/01/03 09:48:12;;;;;;;;;9.25;6.50;;;;;;;;4992796;28;45409;-75
2023/01/03 09:50:38;;;;;;;;;6.00;4.25;;;;;;;;4996761;28;46252;-73
2023/01/03 10:04:26;;;;;;;;;7.50;6.75;;;;;;;;4996997;28;45442;-77
2023/01/03 10:07:00;;;;;;;;;4.75;4.50;;;;;;;;5002039;28;45389;-73
2023/01/03 10:09:25;;;;;;;;;7.50;5.00;;;;;;;;4997550;28;45421;-74
2023/01/03 10:12:09;;;;;;;;;7.25;5.75;;;;;;;;5003339;28;45210;-75
2023/01/03 10:14:43;;;;;;;;;10.50;4.75;;;;;;;;4999560;28;45353;-74
2023/01/03 10:17:27;;;;;;;;;8.75;7.50;;;;;;;;5009081;28;45503;-74
2023/01/03 10:20:01;;;;;;;;;7.50;5.75;;;;;;;;5001389;28;45262;-74
2023/01/03 10:22:27;;;;;;;;;9.50;6.50;;;;;;;;5000794;28;45591;-74
2023/01/03 10:24:59;;;;;;;;;5.75;5.75;;;;;;;;5003890;28;45308;-74
2023/01/03 10:27:26;;;;;;;;;9.50;5.00;;;;;;;;5001452;28;45517;-73
2023/01/03 10:29:55;;;;;;;;;7.75;5.00;;;;;;;;5001096;28;45424;-76
2023/01/03 10:32:32;;;;;;;;;6.00;6.00;;;;;;;;5006309;28;45398;-75
2023/01/03 10:35:00;;;;;;;;;10.50;5.25;;;;;;;;5007675;28;45484;-75
2023/01/03 10:37:26;;;;;;;;;10.00;9.75;;;;;;;;5006354;28;45458;-74
2023/01/03 10:40:00;;;;;;;;;7.00;5.50;;;;;;;;5007611;28;45248;-75
2023/01/03 10:42:29;;;;;;;;;10.00;6.00;;;;;;;;5003822;28;46677;-74
2023/01/03 10:44:56;;;;;;;;;5.00;4.75;;;;;;;;5002932;28;45336;-75
2023/01/03 10:47:24;;;;;;;;;6.00;5.75;;;;;;;;4986654;28;45363;-75
2023/01/03 10:49:49;;;;;;;;;5.00;5.00;;;;;;;;5007996;28;45260;-74
2023/01/03 10:52:18;;;;;;;;;5.25;5.00;;;;;;;;5004995;28;45546;-75
2023/01/03 10:54:47;;;;;;;;;6.00;5.25;;;;;;;;5003658;28;45295;-75
2023/01/03 10:57:31;;;;;;;;;4.50;4.50;;;;;;;;5000719;28;45240;-75
2023/01/03 10:59:56;;;;;;;;;5.25;2.00;;;;;;;;4987410;28;44769;-75
2023/01/03 11:02:22;;;;;;;;;4.00;3.25;;;;;;;;4999131;28;47546;-75
2023/01/03 11:05:03;;;;;;;;;4.00;4.00;;;;;;;;4995969;28;45370;-76
2023/01/03 11:07:28;;;;;;;;;7.25;4.25;;;;;;;;4995902;28;45237;-75
2023/01/03 11:09:55;;;;;;;;;6.00;4.00;;;;;;;;4993012;28;44707;-75
2023/01/03 11:12:34;;;;;;;;;5.75;4.75;;;;;;;;4992456;28;45832;-75
2023/01/03 11:15:00;;;;;;;;;5.00;5.00;;;;;;;;4997572;28;45262;-75
2023/01/03 11:17:26;;;;;;;;;6.25;6.00;;;;;;;;5003691;28;45380;-75
2023/01/03 11:19:51;;;;;;;;;6.50;5.25;;;;;;;;4994223;28;45387;-74
2023/01/03 11:22:23;;;;;;;;;6.00;4.75;;;;;;;;5002127;28;45313;-75
2023/01/03 11:25:01;;;;;;;;;6.25;4.25;;;;;;;;5002374;28;45251;-74
2023/01/03 11:27:35;;;;;;;;;7.50;6.00;;;;;;;;4999846;28;45372;-75
2023/01/03 11:30:05;;;;;;;;;5.25;5.25;;;;;;;;4999840;28;45489;-74
2023/01/03 11:32:39;;;;;;;;;6.00;5.25;;;;;;;;4999804;28;45229;-74
2023/01/03 11:35:23;;;;;;;;;4.00;4.00;;;;;;;;5002191;28;45413;-75
2023/01/03 11:38:03;;;;;;;;;6.50;6.50;;;;;;;;4999031;28;45392;-76
2023/01/03 11:40:42;;;;;;;;;2.25;2.25;;;;;;;;5000477;28;45439;-75
2023/01/03 11:43:19;;;;;;;;;4.50;3.00;;;;;;;;5004540;28;45448;-75
2023/01/03 11:45:51;;;;;;;;;7.50;5.75;;;;;;;;4993105;28;45356;-75
2023/01/03 11:48:35;;;;;;;;;2.50;2.00;;;;;;;;4998578;28;45296;-75
2023/01/03 11:51:35;;;;;;;;;6.25;4.00;;;;;;;;4994637;28;45517;-74
2023/01/03 11:54:01;;;;;;;;;5.75;5.00;;;;;;;;4978204;28;46338;-73
2023/01/03 11:56:41;;;;;;;;;6.00;3.00;;;;;;;;4993917;28;45322;-74
2023/01/03 11:59:33;;;;;;;;;4.75;4.00;;;;;;;;5001265;28;45307;-74
2023/01/03 12:02:16;;;;;;;;;5.50;3.50;;;;;;;;4984909;28;45229;-74
2023/01/03 12:05:00;;;;;;;;;4.25;4.25;;;;;;;;4996853;28;48708;-75
2023/01/03 12:07:31;;;;;;;;;5.00;4.00;;;;;;;;4991825;28;45201;-75
2023/01/03 12:10:02;;;;;;;;;1.50;1.50;;;;;;;;4996251;28;45276;-76
2023/01/03 12:12:33;;;;;;;;;3.25;3.00;;;;;;;;4994998;28;46305;-76
2023/01/03 12:15:03;;;;;;;;;4.50;4.00;;;;;;;;4998704;28;45462;-76
2023/01/03 12:17:37;;;;;;;;;4.25;4.25;;;;;;;;5001833;28;45332;-75
2023/01/03 12:20:09;;;;;;;;;4.50;4.50;;;;;;;;4997894;28;45340;-75
2023/01/03 12:22:54;;;;;;;;;3.00;3.00;;;;;;;;5005337;28;45580;-75
2023/01/03 12:25:23;;;;;;;;;7.00;3.75;;;;;;;;5002573;28;46885;-74
2023/01/03 12:28:02;;;;;;;;;6.00;3.00;;;;;;;;5004933;28;45215;-76
2023/01/03 12:31:05;;;;;;;;;3.50;3.50;;;;;;;;4993019;28;45502;-76
2023/01/03 12:33:49;;;;;;;;;3.00;3.00;;;;;;;;4977200;28;45458;-75
2023/01/03 12:36:30;;;;;;;;;6.50;3.00;;;;;;;;4962324;28;45743;-75
2023/01/03 12:39:13;;;;;;;;;3.00;3.00;;;;;;;;4966986;28;45303;-76
2023/01/03 12:41:44;;;;;;;;;5.00;2.75;;;;;;;;4969201;28;45517;-75
2023/01/03 12:44:23;;;;;;;;;3.50;3.00;;;;;;;;4973930;28;45704;-75
2023/01/03 12:46:51;;;;;;;;;3.00;3.00;;;;;;;;4997963;28;45414;-75
2023/01/03 12:49:23;;;;;;;;;6.25;4.00;;;;;;;;5008616;28;45452;-76
2023/01/03 12:51:48;;;;;;;;;4.00;4.00;;;;;;;;4998989;28;45426;-75
2023/01/03 12:54:28;;;;;;;;;6.00;4.00;;;;;;;;5009085;28;45421;-75
2023/01/03 12:57:16;;;;;;;;;6.75;5.00;;;;;;;;5000425;28;46648;-75
2023/01/03 12:59:44;;;;;;;;;3.50;3.00;;;;;;;;4996425;28;45309;-76
2023/01/03 13:02:20;;;;;;;;;3.25;3.25;;;;;;;;5003247;28;45480;-75
2023/01/03 13:04:48;;;;;;;;;7.00;4.00;;;;;;;;5004305;28;45241;-75
2023/01/03 13:07:33;;;;;;;;;5.75;4.00;;;;;;;;5003286;28;48125;-76
2023/01/03 13:10:12;;;;;;;;;5.25;4.00;;;;;;;;4998331;28;45502;-76
2023/01/03 13:12:40;;;;;;;;;5.50;5.00;;;;;;;;4992669;28;45287;-76
2023/01/03 13:15:25;;;;;;;;;5.00;3.00;;;;;;;;4998896;28;45438;-75
2023/01/03 13:17:51;;;;;;;;;4.00;4.00;;;;;;;;5006432;28;46212;-75
2023/01/03 13:20:28;;;;;;;;;3.67;3.67;;;;;;;;4997446;28;45352;-75
2023/01/03 13:22:54;;;;;;;;;6.00;3.67;;;;;;;;5012663;28;45387;-75
2023/01/03 13:25:30;;;;;;;;;5.25;3.75;;;;;;;;5003684;28;45898;-75
2023/01/03 13:27:56;;;;;;;;;6.25;4.00;;;;;;;;5002652;28;45391;-75
2023/01/03 13:30:29;;;;;;;;;5.75;3.00;;;;;;;;5005056;28;45305;-76
2023/01/03 13:33:00;;;;;;;;;3.75;3.75;;;;;;;;5001990;28;45429;-75
2023/01/03 13:35:35;;;;;;;;;5.67;3.00;;;;;;;;5005903;28;45430;-76
2023/01/03 13:38:17;;;;;;;;;5.00;4.00;;;;;;;;5010040;28;45641;-76
2023/01/03 13:40:49;;;;;;;;;3.67;3.00;;;;;;;;5005901;28;45340;-76
2023/01/03 13:43:20;;;;;;;;;6.00;4.50;;;;;;;;5013255;28;45287;-76
2023/01/03 13:45:45;;;;;;;;;3.50;3.00;;;;;;;;4997981;28;44661;-76
2023/01/03 13:48:16;;;;;;;;;3.25;3.25;;;;;;;;5007816;28;46949;-76
2023/01/03 13:51:00;;;;;;;;;4.25;3.00;;;;;;;;5003961;28;45169;-76
2023/01/03 13:53:29;;;;;;;;;2.00;2.00;;;;;;;;5002933;28;45412;-75
2023/01/03 13:55:59;;;;;;;;;2.50;2.00;;;;;;;;5001796;28;45446;-76
2023/01/03 13:58:31;;;;;;;;;5.00;3.00;;;;;;;;5003371;28;45368;-75
2023/01/03 14:01:01;;;;;;;;;6.25;3.00;;;;;;;;4995674;28;45433;-76
2023/01/03 14:03:27;;;;;;;;;3.00;3.00;;;;;;;;5004811;28;45268;-76
2023/01/03 14:06:01;;;;;;;;;6.75;4.00;;;;;;;;4994934;28;45496;-74
2023/01/03 14:08:50;;;;;;;;;4.50;4.50;;;;;;;;4992692;28;47122;-74
2023/01/03 14:11:33;;;;;;;;;1.00;1.00;;;;;;;;4984319;28;45240;-74
2023/01/03 14:14:09;;;;;;;;;6.75;4.00;;;;;;;;5001366;28;45540;-75
2023/01/03 14:16:41;;;;;;;;;2.00;2.00;;;;;;;;5002748;28;45399;-75
2023/01/03 14:19:15;;;;;;;;;2.75;2.75;;;;;;;;4986194;28;47682;-74
2023/01/03 14:21:44;;;;;;;;;1.25;1.00;;;;;;;;4989902;28;45606;-76
2023/01/03 14:24:41;;;;;;;;;4.00;3.00;;;;;;;;4997537;28;45297;-75
2023/01/03 14:27:12;;;;;;;;;3.25;3.00;;;;;;;;4976853;28;45289;-75
2023/01/03 14:29:39;;;;;;;;;4.50;3.00;;;;;;;;4999608;28;45508;-75
2023/01/03 14:32:05;;;;;;;;;4.50;4.00;;;;;;;;4989936;28;45334;-75
2023/01/03 14:34:34;;;;;;;;;5.50;2.00;;;;;;;;5003012;28;45130;-75
2023/01/03 14:37:10;;;;;;;;;2.50;2.00;;;;;;;;5007896;28;45737;-75
2023/01/03 14:39:35;;;;;;;;;5.25;1.25;;;;;;;;4995606;28;48449;-75
2023/01/03 14:42:02;;;;;;;;;2.00;2.00;;;;;;;;4989070;28;46069;-74
2023/01/03 14:44:28;;;;;;;;;8.00;3.00;;;;;;;;4999140;28;45482;-74
2023/01/03 14:46:56;;;;;;;;;2.50;2.00;;;;;;;;4997167;28;45360;-74
2023/01/03 14:49:30;;;;;;;;;4.00;2.25;;;;;;;;5001045;28;45479;-76
2023/01/03 14:51:59;;;;;;;;;3.50;3.50;;;;;;;;4994400;28;45229;-74
2023/01/03 14:54:25;;;;;;;;;5.75;3.00;;;;;;;;4998621;28;45771;-74
2023/01/03 14:56:51;;;;;;;;;3.00;3.00;;;;;;;;5000392;28;45267;-75
2023/01/03 14:59:17;;;;;;;;;3.75;3.00;;;;;;;;5004285;28;46417;-74
2023/01/03 15:01:43;;;;;;;;;2.00;2.00;;;;;;;;4996160;28;44778;-74
2023/01/03 15:04:12;;;;;;;;;3.00;3.00;;;;;;;;5005216;28;45836;-74
2023/01/03 15:06:38;;;;;;;;;4.00;3.00;;;;;;;;5002139;28;45279;-75
2023/01/03 15:09:21;;;;;;;;;2.50;2.25;;;;;;;;5008007;28;45170;-74
2023/01/03 15:11:58;;;;;;;;;3.00;2.00;;;;;;;;5003342;28;45285;-74
2023/01/03 15:14:24;;;;;;;;;5.50;3.00;;;;;;;;4985056;28;45273;-74
2023/01/03 15:16:50;;;;;;;;;4.00;3.00;;;;;;;;4988946;28;45432;-76
2023/01/03 15:19:18;;;;;;;;;4.00;4.00;;;;;;;;4995771;28;47136;-76
2023/01/03 15:21:44;;;;;;;;;5.75;3.00;;;;;;;;4989129;28;45531;-74
2023/01/03 15:24:13;;;;;;;;;4.75;3.25;;;;;;;;5002901;28;45553;-75
2023/01/03 15:26:40;;;;;;;;;3.00;3.00;;;;;;;;4994647;28;45185;-74
2023/01/03 15:29:05;;;;;;;;;5.00;2.50;;;;;;;;5015327;28;45521;-75
2023/01/03 15:31:35;;;;;;;;;2.00;1.00;;;;;;;;5001159;28;45411;-75
2023/01/03 15:34:13;;;;;;;;;5.75;2.75;;;;;;;;5018922;28;45273;-75
2023/01/03 15:36:38;;;;;;;;;5.25;3.00;;;;;;;;5006256;28;45703;-75
2023/01/03 15:39:08;;;;;;;;;6.00;3.25;;;;;;;;5000595;28;46650;-74
2023/01/03 15:44:23;;;;;;;;;4.75;3.75;;;;;;;;4998746;28;45133;-74
2023/01/03 15:46:49;;;;;;;;;6.25;4.00;;;;;;;;4999790;28;45640;-75
2023/01/03 15:49:18;;;;;;;;;7.50;4.50;;;;;;;;5002912;28;45253;-74